createdAt,value
2019-04-16T00:02:18.481Z,79.61
2019-04-16T00:05:09.132Z,79.85
2019-04-16T00:08:01.845Z,79.88
2019-04-16T00:10:44.035Z,80.22
2019-04-16T00:13:19.885Z,79.66
2019-04-16T00:15:47.503Z,79.07
2019-04-16T00:18:18.483Z,79.22
2019-04-16T00:20:58.262Z,78.44
2019-04-16T00:23:37.624Z,79.03
2019-04-16T00:26:05.781Z,79.58
2019-04-16T00:28:33.389Z,79.80
2019-04-16T00:31:01.022Z,79.89
2019-04-16T00:33:28.583Z,79.89
2019-04-16T00:35:56.134Z,79.63
2019-04-16T00:38:23.534Z,80.13
2019-04-16T00:40:50.992Z,79.93
2019-04-16T00:43:18.463Z,79.92
2019-04-16T00:45:45.921Z,80.18
2019-04-16T00:48:13.906Z,80.23
2019-04-16T00:50:41.477Z,79.92
2019-04-16T00:53:09.261Z,79.83
2019-04-16T00:55:36.848Z,79.36
2019-04-16T00:58:04.465Z,79.37
2019-04-16T01:00:32.037Z,79.65
2019-04-16T01:02:59.574Z,79.24
2019-04-16T01:05:27.232Z,79.38
2019-04-16T01:07:54.701Z,79.82
2019-04-16T01:10:22.232Z,79.62
2019-04-16T01:12:49.706Z,80.12
2019-04-16T01:15:17.268Z,80.23
2019-04-16T01:17:44.835Z,80.39
2019-04-16T01:20:13.087Z,80.69
2019-04-16T01:22:40.745Z,80.95
2019-04-16T01:25:08.447Z,80.62
2019-04-16T01:27:42.489Z,80.66
2019-04-16T01:30:12.228Z,80.26
2019-04-16T01:32:53.779Z,79.75
2019-04-16T01:35:40.760Z,80.10
2019-04-16T01:38:33.807Z,79.95
2019-04-16T01:41:04.029Z,79.05
2019-04-16T01:43:31.610Z,78.43
2019-04-16T01:46:01.440Z,78.48
2019-04-16T01:48:28.478Z,78.33
2019-04-16T01:50:55.988Z,77.75
2019-04-16T01:53:23.537Z,77.66
2019-04-16T01:55:51.044Z,76.89
2019-04-16T01:58:19.063Z,76.56
2019-04-16T02:00:46.635Z,76.92
2019-04-16T02:03:17.558Z,76.75
2019-04-16T02:05:43.718Z,76.99
2019-04-16T02:08:11.249Z,76.74
2019-04-16T02:10:39.150Z,76.35
2019-04-16T02:13:06.962Z,75.95
2019-04-16T02:15:34.609Z,75.63
2019-04-16T02:18:02.122Z,74.92
2019-04-16T02:20:29.678Z,74.67
2019-04-16T02:22:57.302Z,74.28
2019-04-16T02:25:24.869Z,74.42
2019-04-16T02:27:54.209Z,74.34
2019-04-16T02:30:21.726Z,74.01
2019-04-16T02:32:49.333Z,73.82
2019-04-16T02:35:16.959Z,73.40
2019-04-16T02:37:44.516Z,72.69
2019-04-16T02:40:16.894Z,73.08
2019-04-16T02:42:41.586Z,72.56
2019-04-16T02:45:09.207Z,72.52
2019-04-16T02:47:41.863Z,72.11
2019-04-16T02:50:09.318Z,72.67
2019-04-16T02:52:52.464Z,72.67
2019-04-16T02:55:29.424Z,72.26
2019-04-16T02:58:02.365Z,71.85
2019-04-16T03:00:50.804Z,70.91
2019-04-16T03:03:25.706Z,69.96
2019-04-16T03:05:55.047Z,70.64
2019-04-16T03:08:22.644Z,71.38
2019-04-16T03:10:50.252Z,72.48
2019-04-16T03:13:23.040Z,73.49
2019-04-16T03:16:06.045Z,74.47
2019-04-16T03:18:39.196Z,74.45
2019-04-16T03:21:06.856Z,74.83
2019-04-16T03:23:37.522Z,75.24
2019-04-16T03:26:04.429Z,75.28
2019-04-16T03:28:32.089Z,74.85
2019-04-16T03:30:59.732Z,75.14
2019-04-16T03:33:28.669Z,74.78
2019-04-16T03:35:57.829Z,74.99
2019-04-16T03:38:25.668Z,74.69
2019-04-16T03:40:55.908Z,74.69
2019-04-16T03:43:22.640Z,74.66
2019-04-16T03:45:50.143Z,74.11
2019-04-16T03:48:17.680Z,74.45
2019-04-16T03:50:45.106Z,74.05
2019-04-16T03:53:16.317Z,73.70
2019-04-16T03:55:42.208Z,73.89
2019-04-16T03:58:09.800Z,74.21
2019-04-16T04:00:37.403Z,73.79
2019-04-16T04:03:04.958Z,73.50
2019-04-16T04:05:35.073Z,73.31
2019-04-16T04:08:01.901Z,73.21
2019-04-16T04:10:31.286Z,73.20
2019-04-16T04:12:58.926Z,72.89
2019-04-16T04:15:28.355Z,72.92
2019-04-16T04:17:55.844Z,72.88
2019-04-16T04:20:23.327Z,72.78
2019-04-16T04:22:50.907Z,71.97
2019-04-16T04:25:18.549Z,72.33
2019-04-16T04:27:46.705Z,72.72
2019-04-16T04:30:16.488Z,72.53
2019-04-16T04:32:47.274Z,72.94
2019-04-16T04:35:13.468Z,72.96
2019-04-16T04:37:41.013Z,72.43
2019-04-16T04:40:08.586Z,71.95
2019-04-16T04:42:36.101Z,71.59
2019-04-16T04:45:08.365Z,71.01
2019-04-16T04:47:33.881Z,70.97
2019-04-16T04:50:03.335Z,70.89
2019-04-16T04:52:30.933Z,71.33
2019-04-16T04:54:58.351Z,70.74
2019-04-16T04:57:28.423Z,70.33
2019-04-16T04:59:55.337Z,70.47
2019-04-16T05:02:22.732Z,70.49
2019-04-16T05:05:09.817Z,69.71
2019-04-16T05:07:37.367Z,70.40
2019-04-16T05:10:07.574Z,69.88
2019-04-16T05:12:34.448Z,70.12
2019-04-16T05:15:03.894Z,70.11
2019-04-16T05:17:31.362Z,69.69
2019-04-16T05:19:58.859Z,69.95
2019-04-16T05:22:26.426Z,68.46
2019-04-16T05:24:54.003Z,68.85
2019-04-16T05:27:21.692Z,68.99
2019-04-16T05:29:49.651Z,69.25
2019-04-16T05:32:17.225Z,69.19
2019-04-16T05:34:44.852Z,68.83
2019-04-16T05:37:12.308Z,68.81
2019-04-16T05:39:39.850Z,68.72
2019-04-16T05:42:07.372Z,68.52
2019-04-16T05:44:34.870Z,67.66
2019-04-16T05:47:04.515Z,65.70
2019-04-16T05:49:32.249Z,65.48
2019-04-16T05:52:02.888Z,65.46
2019-04-16T05:54:41.510Z,65.56
2019-04-16T05:57:11.407Z,64.74
2019-04-16T05:59:38.978Z,63.49
2019-04-16T06:02:20.643Z,62.24
2019-04-16T06:04:48.135Z,61.64
2019-04-16T06:07:15.632Z,61.54
2019-04-16T06:09:44.397Z,59.47
2019-04-16T06:12:12.653Z,60.29
2019-04-16T06:15:05.393Z,61.62
2019-04-16T06:17:50.099Z,61.96
2019-04-16T06:20:46.344Z,62.87
2019-04-16T06:23:21.525Z,62.75
2019-04-16T06:26:16.608Z,62.58
2019-04-16T06:29:03.079Z,61.83
2019-04-16T06:31:46.058Z,62.17
2019-04-16T06:34:36.051Z,62.45
2019-04-16T06:37:14.591Z,61.18
2019-04-16T06:40:01.887Z,60.71
2019-04-16T06:42:38.512Z,60.23
2019-04-16T06:45:23.140Z,60.43
2019-04-16T06:48:01.655Z,61.13
2019-04-16T06:50:40.557Z,60.88
2019-04-16T06:53:16.017Z,61.40
2019-04-16T06:56:05.493Z,61.34
2019-04-16T06:58:57.183Z,61.95
2019-04-16T07:01:42.057Z,62.76
2019-04-16T07:04:35.052Z,62.85
2019-04-16T07:07:13.152Z,62.69
2019-04-16T07:10:02.871Z,62.11
2019-04-16T07:12:37.974Z,61.55
2019-04-16T07:15:03.378Z,61.45
2019-04-16T07:17:33.670Z,60.15
2019-04-16T07:20:00.453Z,60.67
2019-04-16T07:22:28.022Z,61.01
2019-04-16T07:25:03.380Z,60.62
2019-04-16T07:27:38.578Z,60.67
2019-04-16T07:30:11.602Z,61.17
2019-04-16T07:33:01.339Z,61.79
2019-04-16T07:35:50.087Z,59.57
2019-04-16T07:38:39.838Z,57.05
2019-04-16T07:41:42.789Z,57.68
2019-04-16T07:44:30.998Z,56.30
2019-04-16T07:47:10.978Z,55.16
2019-04-16T07:49:44.809Z,53.22
2019-04-16T07:52:30.214Z,51.55
2019-04-16T07:55:29.292Z,49.68
2019-04-16T07:57:57.085Z,50.74
2019-04-16T08:00:24.564Z,50.53
2019-04-16T08:02:53.778Z,50.56
2019-04-16T08:05:21.564Z,52.79
2019-04-16T08:07:49.774Z,51.98
2019-04-16T08:10:18.515Z,52.78
2019-04-16T08:12:50.214Z,52.96
2019-04-16T08:15:17.759Z,51.14
2019-04-16T08:17:45.353Z,50.93
2019-04-16T08:20:13.107Z,51.33
2019-04-16T08:22:40.543Z,52.27
2019-04-16T08:25:08.205Z,53.02
2019-04-16T08:27:35.662Z,53.29
2019-04-16T08:30:06.103Z,52.76
2019-04-16T08:32:33.705Z,53.11
2019-04-16T08:35:01.123Z,53.60
2019-04-16T08:37:28.666Z,52.96
2019-04-16T08:39:56.204Z,53.14
2019-04-16T08:42:25.729Z,52.02
2019-04-16T08:44:53.189Z,51.13
2019-04-16T08:47:20.818Z,51.04
2019-04-16T08:49:53.662Z,49.93
2019-04-16T08:52:17.854Z,50.67
2019-04-16T08:54:50.022Z,51.74
2019-04-16T08:57:14.740Z,53.21
2019-04-16T08:59:43.267Z,54.01
2019-04-16T09:02:10.908Z,54.38
2019-04-16T09:04:38.368Z,52.73
2019-04-16T09:07:12.058Z,53.13
2019-04-16T09:10:01.002Z,53.01
2019-04-16T09:12:28.621Z,51.57
2019-04-16T09:14:56.626Z,51.59
2019-04-16T09:17:41.702Z,51.70
2019-04-16T09:20:11.752Z,51.22
2019-04-16T09:22:48.754Z,51.76
2019-04-16T09:25:23.323Z,50.97
2019-04-16T09:27:54.614Z,51.68
2019-04-16T09:30:50.867Z,52.58
2019-04-16T09:33:24.153Z,52.78
2019-04-16T09:35:57.918Z,51.96
2019-04-16T09:38:31.474Z,51.13
2019-04-16T09:41:21.247Z,48.79
2019-04-16T09:43:53.782Z,48.89
2019-04-16T09:46:44.684Z,49.21
2019-04-16T09:48:50.673Z,47.76
2019-04-16T09:51:20.575Z,46.46
2019-04-16T09:53:47.536Z,44.79
2019-04-16T09:56:30.000Z,44.69
2019-04-16T09:59:02.236Z,42.69
2019-04-16T10:01:39.826Z,42.55
2019-04-16T10:04:09.157Z,42.18
2019-04-16T10:06:36.667Z,40.52
2019-04-16T10:09:05.639Z,41.05
2019-04-16T10:11:35.714Z,39.40
2019-04-16T10:14:04.007Z,40.83
2019-04-16T10:16:31.506Z,41.26
2019-04-16T10:18:58.991Z,41.84
2019-04-16T10:21:28.823Z,43.43
2019-04-16T10:24:15.285Z,44.05
2019-04-16T10:26:44.308Z,43.32
2019-04-16T10:29:14.233Z,43.33
2019-04-16T10:31:41.990Z,42.16
2019-04-16T10:34:09.685Z,42.71
2019-04-16T10:36:38.114Z,42.57
2019-04-16T10:39:28.490Z,42.69
2019-04-16T10:42:10.980Z,42.44
2019-04-16T10:45:00.911Z,40.58
2019-04-16T10:47:40.731Z,40.28
2019-04-16T10:50:18.091Z,42.46
2019-04-16T10:53:03.655Z,41.77
2019-04-16T10:55:48.574Z,40.32
2019-04-16T10:58:44.650Z,39.18
2019-04-16T11:01:41.074Z,39.04
2019-04-16T11:04:34.328Z,39.15
2019-04-16T11:07:06.636Z,39.07
2019-04-16T11:09:34.121Z,41.02
2019-04-16T11:12:04.802Z,41.07
2019-04-16T11:14:31.188Z,40.64
2019-04-16T11:16:58.644Z,40.25
2019-04-16T11:19:26.098Z,41.33
2019-04-16T11:21:53.554Z,40.42
2019-04-16T11:24:21.135Z,42.54
2019-04-16T11:26:48.649Z,43.50
2019-04-16T11:29:16.286Z,44.50
2019-04-16T11:31:44.182Z,46.60
2019-04-16T11:34:12.098Z,47.68
2019-04-16T11:36:39.998Z,49.95
2019-04-16T11:39:08.965Z,56.02
2019-04-16T11:41:36.692Z,55.99
2019-04-16T11:44:15.243Z,61.00
2019-04-16T11:46:34.161Z,64.08
2019-04-16T11:49:01.931Z,68.29
2019-04-16T11:51:29.556Z,72.34
2019-04-16T11:53:57.102Z,72.60
2019-04-16T11:56:24.653Z,72.82
2019-04-16T11:58:52.122Z,72.85
2019-04-16T12:01:45.363Z,73.35
2019-04-16T12:04:32.461Z,68.96
2019-04-16T12:07:25.512Z,72.75
2019-04-16T12:10:05.110Z,74.42
2019-04-16T12:12:38.944Z,72.51
2019-04-16T12:15:23.909Z,69.96
2019-04-16T12:18:17.080Z,73.48
2019-04-16T12:21:09.204Z,71.90
2019-04-16T12:23:54.727Z,66.95
2019-04-16T12:26:40.341Z,64.57
2019-04-16T12:29:25.833Z,61.15
2019-04-16T12:32:07.787Z,59.91
2019-04-16T12:34:53.155Z,59.27
2019-04-16T12:37:38.907Z,56.50
2019-04-16T12:40:32.186Z,56.45
2019-04-16T12:43:05.574Z,57.12
2019-04-16T12:45:53.501Z,55.52
2019-04-16T12:48:40.961Z,55.25
2019-04-16T12:51:18.932Z,57.24
2019-04-16T12:54:04.888Z,59.88
2019-04-16T12:56:50.445Z,61.53
2019-04-16T12:59:25.007Z,63.54
2019-04-16T13:02:20.131Z,62.92
2019-04-16T13:04:55.843Z,62.05
2019-04-16T13:07:31.479Z,63.67
2019-04-16T13:10:27.061Z,62.67
2019-04-16T13:13:22.703Z,64.30
2019-04-16T13:16:07.462Z,64.18
2019-04-16T13:18:57.227Z,61.80
2019-04-16T13:21:28.043Z,61.15
2019-04-16T13:24:07.642Z,59.96
2019-04-16T13:27:03.399Z,59.93
2019-04-16T13:29:32.106Z,57.48
2019-04-16T13:31:59.970Z,55.86
2019-04-16T13:34:27.565Z,54.83
2019-04-16T13:36:59.359Z,50.96
2019-04-16T13:39:42.510Z,53.10
2019-04-16T13:42:10.004Z,52.32
2019-04-16T13:44:43.875Z,50.52
2019-04-16T13:47:11.446Z,48.73
2019-04-16T13:50:02.628Z,47.01
2019-04-16T13:52:27.836Z,45.23
2019-04-16T13:55:14.946Z,46.44
2019-04-16T13:57:46.206Z,49.06
2019-04-16T14:00:19.643Z,50.16
2019-04-16T14:02:55.593Z,53.42
2019-04-16T14:05:23.572Z,57.56
2019-04-16T14:07:51.089Z,57.11
2019-04-16T14:10:18.691Z,53.46
2019-04-16T14:12:46.249Z,55.16
2019-04-16T14:15:14.006Z,52.34
2019-04-16T14:17:52.574Z,51.88
2019-04-16T14:20:13.930Z,50.50
2019-04-16T14:22:42.486Z,48.51
2019-04-16T14:25:11.642Z,47.40
2019-04-16T14:27:39.244Z,45.94
2019-04-16T14:30:30.631Z,45.46
2019-04-16T14:32:58.189Z,45.85
2019-04-16T14:35:33.643Z,47.47
2019-04-16T14:37:57.183Z,46.98
2019-04-16T14:40:25.883Z,46.22
2019-04-16T14:42:57.419Z,46.38
2019-04-16T14:45:57.632Z,45.88
2019-04-16T14:48:14.174Z,45.46
2019-04-16T14:50:41.794Z,45.20
2019-04-16T14:53:09.291Z,46.31
2019-04-16T14:55:59.106Z,47.14
2019-04-16T14:58:36.116Z,48.24
2019-04-16T15:01:26.175Z,48.08
2019-04-16T15:04:09.460Z,47.61
2019-04-16T15:07:02.469Z,47.77
2019-04-16T15:09:42.875Z,48.39
2019-04-16T15:12:27.267Z,48.11
2019-04-16T15:14:59.434Z,47.54
2019-04-16T15:18:04.422Z,47.60
2019-04-16T15:20:51.484Z,47.34
2019-04-16T15:23:50.873Z,46.42
2019-04-16T15:26:52.787Z,44.96
2019-04-16T15:29:44.105Z,44.85
2019-04-16T15:32:35.320Z,44.14
2019-04-16T15:35:03.391Z,42.73
2019-04-16T15:37:37.987Z,43.29
2019-04-16T15:40:10.555Z,43.13
2019-04-16T15:42:56.268Z,43.67
2019-04-16T15:45:29.921Z,43.68
2019-04-16T15:48:34.511Z,43.16
2019-04-16T15:51:17.927Z,44.59
2019-04-16T15:53:51.295Z,44.81
2019-04-16T15:56:30.080Z,45.24
2019-04-16T15:59:13.189Z,45.46
2019-04-16T16:02:03.016Z,45.91
2019-04-16T16:04:50.754Z,46.52
2019-04-16T16:07:24.444Z,45.84
2019-04-16T16:10:13.753Z,44.97
2019-04-16T16:12:41.278Z,44.82
2019-04-16T16:15:09.876Z,44.60
2019-04-16T16:17:37.453Z,44.89
2019-04-16T16:20:09.621Z,44.55
2019-04-16T16:22:35.183Z,44.87
2019-04-16T16:25:05.890Z,45.62
2019-04-16T16:27:32.487Z,47.08
2019-04-16T16:30:00.000Z,50.22
2019-04-16T16:32:27.428Z,51.80
2019-04-16T16:34:55.529Z,52.12
2019-04-16T16:37:23.334Z,51.85
2019-04-16T16:39:50.733Z,52.74
2019-04-16T16:42:18.239Z,52.72
2019-04-16T16:44:45.750Z,52.97
2019-04-16T16:47:32.828Z,53.01
2019-04-16T16:50:00.746Z,52.86
2019-04-16T16:53:06.059Z,53.13
2019-04-16T16:55:37.736Z,53.56
2019-04-16T16:58:31.165Z,54.77
2019-04-16T17:01:18.315Z,55.76
2019-04-16T17:04:08.569Z,55.82
2019-04-16T17:06:36.728Z,56.76
2019-04-16T17:09:06.036Z,56.91
2019-04-16T17:11:33.430Z,56.80
2019-04-16T17:14:02.231Z,57.39
2019-04-16T17:16:30.490Z,58.26
2019-04-16T17:18:58.532Z,58.30
2019-04-16T17:21:26.112Z,58.75
2019-04-16T17:23:53.842Z,59.58
2019-04-16T17:26:21.341Z,58.66
2019-04-16T17:28:48.860Z,58.53
2019-04-16T17:31:16.459Z,58.31
2019-04-16T17:33:44.032Z,58.58
2019-04-16T17:36:11.885Z,58.91
2019-04-16T17:38:39.283Z,58.59
2019-04-16T17:41:09.735Z,58.49
2019-04-16T17:43:59.698Z,58.31
2019-04-16T17:46:34.149Z,58.17
2019-04-16T17:49:20.128Z,58.63
2019-04-16T17:52:09.925Z,59.40
2019-04-16T17:54:41.192Z,59.64
2019-04-16T17:57:30.712Z,58.64
2019-04-16T18:00:17.742Z,57.67
2019-04-16T18:03:08.203Z,57.88
2019-04-16T18:05:43.546Z,57.52
2019-04-16T18:08:29.493Z,56.50
2019-04-16T18:11:15.104Z,56.34
2019-04-16T18:14:14.039Z,55.92
2019-04-16T18:16:50.070Z,56.17
2019-04-16T18:19:36.115Z,55.78
2019-04-16T18:22:15.712Z,54.85
2019-04-16T18:25:14.644Z,55.30
2019-04-16T18:27:49.891Z,54.60
2019-04-16T18:30:35.447Z,55.73
2019-04-16T18:33:40.499Z,56.65
2019-04-16T18:36:23.044Z,57.98
2019-04-16T18:39:10.225Z,57.90
2019-04-16T18:41:42.355Z,57.93
2019-04-16T18:44:29.269Z,58.25
2019-04-16T18:47:28.747Z,57.77
2019-04-16T18:49:59.067Z,56.34
2019-04-16T18:52:27.412Z,55.21
2019-04-16T18:54:54.888Z,54.66
2019-04-16T18:57:22.363Z,54.54
2019-04-16T18:59:49.768Z,53.78
2019-04-16T19:02:17.225Z,53.62
2019-04-16T19:04:44.831Z,52.85
2019-04-16T19:07:12.733Z,52.39
2019-04-16T19:09:41.241Z,51.80
2019-04-16T19:12:08.982Z,52.15
2019-04-16T19:14:36.909Z,51.86
2019-04-16T19:17:04.949Z,52.24
2019-04-16T19:19:32.456Z,50.71
2019-04-16T19:21:59.881Z,51.62
2019-04-16T19:24:27.375Z,53.02
2019-04-16T19:26:55.472Z,53.36
2019-04-16T19:29:23.009Z,54.74
2019-04-16T19:31:54.767Z,57.47
2019-04-16T19:34:19.852Z,57.82
2019-04-16T19:36:47.421Z,58.19
2019-04-16T19:39:15.551Z,59.24
2019-04-16T19:41:43.374Z,60.13
2019-04-16T19:44:10.869Z,60.65
2019-04-16T19:46:38.355Z,61.54
2019-04-16T19:49:05.944Z,62.07
2019-04-16T19:51:33.444Z,59.25
2019-04-16T19:54:01.573Z,60.52
2019-04-16T19:56:29.068Z,60.18
2019-04-16T19:58:56.545Z,60.41
2019-04-16T20:01:24.392Z,58.14
2019-04-16T20:03:53.444Z,58.36
2019-04-16T20:06:25.309Z,56.77
2019-04-16T20:08:52.048Z,53.43
2019-04-16T20:11:21.630Z,52.40
2019-04-16T20:13:49.331Z,52.25
2019-04-16T20:16:16.912Z,52.47
2019-04-16T20:18:51.251Z,51.97
2019-04-16T20:21:13.651Z,51.25
2019-04-16T20:23:41.226Z,49.19
2019-04-16T20:26:08.945Z,48.82
2019-04-16T20:28:36.429Z,49.39
2019-04-16T20:31:04.774Z,48.12
2019-04-16T20:33:32.415Z,48.02
2019-04-16T20:36:00.069Z,45.76
2019-04-16T20:38:29.305Z,45.47
2019-04-16T20:40:56.827Z,43.79
2019-04-16T20:43:24.262Z,43.17
2019-04-16T20:45:51.713Z,42.89
2019-04-16T20:48:19.297Z,43.74
2019-04-16T20:50:46.775Z,43.46
2019-04-16T20:53:14.230Z,42.86
2019-04-16T20:55:47.082Z,41.93
2019-04-16T20:58:14.606Z,42.33
2019-04-16T21:00:43.633Z,42.07
2019-04-16T21:03:21.859Z,41.71
2019-04-16T21:05:40.512Z,41.78
2019-04-16T21:08:08.010Z,41.67
2019-04-16T21:10:36.357Z,41.69
2019-04-16T21:13:04.587Z,41.19
2019-04-16T21:15:32.162Z,41.08
2019-04-16T21:17:59.633Z,41.28
2019-04-16T21:20:27.131Z,41.28
2019-04-16T21:22:57.513Z,40.46
2019-04-16T21:25:23.964Z,40.75
2019-04-16T21:28:13.502Z,40.52
2019-04-16T21:30:43.423Z,40.78
2019-04-16T21:33:20.568Z,40.52
2019-04-16T21:35:51.230Z,40.43
2019-04-16T21:38:47.064Z,40.21
2019-04-16T21:41:14.489Z,39.81
2019-04-16T21:43:41.880Z,39.50
2019-04-16T21:46:09.379Z,39.61
2019-04-16T21:48:36.837Z,39.71
2019-04-16T21:51:04.261Z,40.16
2019-04-16T21:53:31.684Z,40.43
2019-04-16T21:55:59.245Z,40.26
2019-04-16T21:58:26.687Z,40.27
2019-04-16T22:01:13.759Z,40.40
2019-04-16T22:03:43.015Z,40.52
2019-04-16T22:06:10.638Z,40.36
2019-04-16T22:08:38.038Z,40.21
2019-04-16T22:11:08.550Z,40.45
2019-04-16T22:13:34.951Z,40.83
2019-04-16T22:16:02.571Z,40.86
2019-04-16T22:18:30.145Z,40.98
2019-04-16T22:20:57.751Z,41.09
2019-04-16T22:23:25.280Z,41.46
2019-04-16T22:25:52.744Z,41.70
2019-04-16T22:28:20.253Z,41.25
2019-04-16T22:30:51.178Z,40.80
2019-04-16T22:33:17.059Z,40.55
2019-04-16T22:35:44.588Z,40.49
2019-04-16T22:38:14.349Z,40.10
2019-04-16T22:40:54.920Z,40.27
2019-04-16T22:43:51.348Z,39.16
2019-04-16T22:46:31.433Z,38.98
2019-04-16T22:48:59.743Z,39.07
2019-04-16T22:51:27.219Z,38.82
2019-04-16T22:53:54.784Z,38.60
2019-04-16T22:56:29.018Z,38.92
2019-04-16T22:58:56.691Z,39.06
2019-04-16T23:01:25.076Z,39.25
2019-04-16T23:03:53.305Z,39.19
2019-04-16T23:06:22.010Z,39.20
2019-04-16T23:08:49.486Z,39.65
2019-04-16T23:11:17.002Z,39.45
2019-04-16T23:13:44.502Z,39.32
2019-04-16T23:16:12.158Z,39.84
2019-04-16T23:18:39.721Z,40.26
2019-04-16T23:21:10.018Z,40.86
2019-04-16T23:23:36.547Z,41.74
2019-04-16T23:26:04.063Z,42.71
2019-04-16T23:28:31.456Z,42.82
2019-04-16T23:30:58.885Z,42.97
2019-04-16T23:33:26.442Z,42.89
2019-04-16T23:35:53.853Z,43.29
2019-04-16T23:38:21.378Z,43.67
2019-04-16T23:40:48.895Z,44.26
2019-04-16T23:43:34.599Z,44.31
2019-04-16T23:46:34.602Z,44.25
2019-04-16T23:49:31.629Z,44.69
2019-04-16T23:52:10.610Z,44.97
2019-04-16T23:54:52.315Z,45.15
2019-04-16T23:57:27.553Z,45.30
